sensor_id;sensor_type;location;lat;lon;timestamp;P1;durP1;ratioP1;P2;durP2;ratioP2
40993;SDS011;26722;43.212;27.932;2023-02-08T00:01:11;17.33;;;9.50;;
40993;SDS011;26722;43.212;27.932;2023-02-08T00:03:38;31.45;;;14.32;;
40993;SDS011;26722;43.212;27.932;2023-02-08T00:06:03;37.45;;;15.75;;
40993;SDS011;26722;43.212;27.932;2023-02-08T00:08:30;33.65;;;15.32;;
40993;SDS011;26722;43.212;27.932;2023-02-08T00:10:56;24.48;;;10.38;;
40993;SDS011;26722;43.212;27.932;2023-02-08T00:13:21;31.17;;;12.75;;
40993;SDS011;26722;43.212;27.932;2023-02-08T00:15:47;33.13;;;13.80;;
40993;SDS011;26722;43.212;27.932;2023-02-08T00:18:13;32.25;;;13.48;;
40993;SDS011;26722;43.212;27.932;2023-02-08T00:20:39;30.85;;;12.98;;
40993;SDS011;26722;43.212;27.932;2023-02-08T00:23:06;35.90;;;15.10;;
40993;SDS011;26722;43.212;27.932;2023-02-08T00:25:31;33.88;;;15.15;;
40993;SDS011;26722;43.212;27.932;2023-02-08T00:27:57;26.13;;;10.52;;
40993;SDS011;26722;43.212;27.932;2023-02-08T00:30:22;32.95;;;12.40;;
40993;SDS011;26722;43.212;27.932;2023-02-08T00:32:48;31.33;;;15.32;;
40993;SDS011;26722;43.212;27.932;2023-02-08T00:35:14;28.90;;;13.95;;
40993;SDS011;26722;43.212;27.932;2023-02-08T00:37:39;33.13;;;15.07;;
40993;SDS011;26722;43.212;27.932;2023-02-08T00:40:05;34.45;;;14.63;;
40993;SDS011;26722;43.212;27.932;2023-02-08T00:42:31;29.88;;;15.00;;
40993;SDS011;26722;43.212;27.932;2023-02-08T00:44:57;31.48;;;15.55;;
40993;SDS011;26722;43.212;27.932;2023-02-08T00:47:22;36.28;;;15.32;;
40993;SDS011;26722;43.212;27.932;2023-02-08T00:49:48;29.75;;;13.77;;
40993;SDS011;26722;43.212;27.932;2023-02-08T00:52:14;29.90;;;13.48;;
40993;SDS011;26722;43.212;27.932;2023-02-08T00:54:40;38.03;;;15.55;;
40993;SDS011;26722;43.212;27.932;2023-02-08T00:57:06;34.38;;;15.20;;
40993;SDS011;26722;43.212;27.932;2023-02-08T00:59:32;31.45;;;14.85;;
40993;SDS011;26722;43.212;27.932;2023-02-08T01:01:58;27.67;;;12.18;;
40993;SDS011;26722;43.212;27.932;2023-02-08T01:04:23;28.48;;;11.77;;
40993;SDS011;26722;43.212;27.932;2023-02-08T01:06:49;23.33;;;11.15;;
40993;SDS011;26722;43.212;27.932;2023-02-08T01:09:14;25.92;;;12.10;;
40993;SDS011;26722;43.212;27.932;2023-02-08T01:11:40;32.38;;;14.13;;
40993;SDS011;26722;43.212;27.932;2023-02-08T01:14:05;29.05;;;12.57;;
40993;SDS011;26722;43.212;27.932;2023-02-08T01:16:31;29.98;;;13.55;;
40993;SDS011;26722;43.212;27.932;2023-02-08T01:18:58;25.15;;;12.05;;
40993;SDS011;26722;43.212;27.932;2023-02-08T01:21:26;25.13;;;11.07;;
40993;SDS011;26722;43.212;27.932;2023-02-08T01:23:53;25.10;;;11.75;;
40993;SDS011;26722;43.212;27.932;2023-02-08T01:26:20;22.48;;;8.93;;
40993;SDS011;26722;43.212;27.932;2023-02-08T01:28:46;23.95;;;10.30;;
40993;SDS011;26722;43.212;27.932;2023-02-08T01:31:13;26.30;;;11.85;;
40993;SDS011;26722;43.212;27.932;2023-02-08T01:33:41;24.75;;;10.70;;
40993;SDS011;26722;43.212;27.932;2023-02-08T01:36:07;24.33;;;10.57;;
40993;SDS011;26722;43.212;27.932;2023-02-08T01:38:34;22.80;;;10.63;;
40993;SDS011;26722;43.212;27.932;2023-02-08T01:41:00;24.60;;;11.00;;
40993;SDS011;26722;43.212;27.932;2023-02-08T01:44:01;24.27;;;10.52;;
40993;SDS011;26722;43.212;27.932;2023-02-08T01:46:36;16.45;;;8.18;;
40993;SDS011;26722;43.212;27.932;2023-02-08T01:49:48;20.17;;;8.30;;
40993;SDS011;26722;43.212;27.932;2023-02-08T01:54:29;21.75;;;8.88;;
40993;SDS011;26722;43.212;27.932;2023-02-08T01:57:07;24.02;;;8.93;;
40993;SDS011;26722;43.212;27.932;2023-02-08T01:59:35;14.32;;;6.55;;
40993;SDS011;26722;43.212;27.932;2023-02-08T02:02:22;19.88;;;8.40;;
40993;SDS011;26722;43.212;27.932;2023-02-08T02:04:51;17.20;;;7.60;;
40993;SDS011;26722;43.212;27.932;2023-02-08T02:07:17;19.60;;;7.85;;
40993;SDS011;26722;43.212;27.932;2023-02-08T02:09:59;17.23;;;6.90;;
40993;SDS011;26722;43.212;27.932;2023-02-08T02:12:26;14.82;;;7.15;;
40993;SDS011;26722;43.212;27.932;2023-02-08T02:14:53;12.18;;;6.50;;
40993;SDS011;26722;43.212;27.932;2023-02-08T02:17:20;20.50;;;8.00;;
40993;SDS011;26722;43.212;27.932;2023-02-08T02:25:00;14.20;;;5.35;;
40993;SDS011;26722;43.212;27.932;2023-02-08T02:36:34;15.73;;;6.93;;
40993;SDS011;26722;43.212;27.932;2023-02-08T02:41:56;9.88;;;5.00;;
40993;SDS011;26722;43.212;27.932;2023-02-08T02:50:45;12.13;;;6.47;;
40993;SDS011;26722;43.212;27.932;2023-02-08T02:55:49;17.85;;;8.30;;
40993;SDS011;26722;43.212;27.932;2023-02-08T02:58:24;15.68;;;7.07;;
40993;SDS011;26722;43.212;27.932;2023-02-08T03:00:54;17.92;;;5.80;;
40993;SDS011;26722;43.212;27.932;2023-02-08T03:03:22;12.32;;;6.00;;
40993;SDS011;26722;43.212;27.932;2023-02-08T03:05:49;15.35;;;6.10;;
40993;SDS011;26722;43.212;27.932;2023-02-08T03:11:18;9.35;;;4.70;;
40993;SDS011;26722;43.212;27.932;2023-02-08T03:36:04;19.02;;;8.88;;
40993;SDS011;26722;43.212;27.932;2023-02-08T03:38:38;14.82;;;6.55;;
40993;SDS011;26722;43.212;27.932;2023-02-08T03:41:08;19.55;;;8.23;;
40993;SDS011;26722;43.212;27.932;2023-02-08T03:43:37;17.38;;;6.85;;
40993;SDS011;26722;43.212;27.932;2023-02-08T03:46:51;12.30;;;6.18;;
40993;SDS011;26722;43.212;27.932;2023-02-08T03:48:59;14.50;;;6.63;;
40993;SDS011;26722;43.212;27.932;2023-02-08T03:51:28;10.98;;;5.68;;
40993;SDS011;26722;43.212;27.932;2023-02-08T03:53:55;11.55;;;5.45;;
40993;SDS011;26722;43.212;27.932;2023-02-08T03:56:34;15.50;;;6.60;;
40993;SDS011;26722;43.212;27.932;2023-02-08T03:59:11;16.15;;;6.85;;
40993;SDS011;26722;43.212;27.932;2023-02-08T04:01:45;14.73;;;5.50;;
40993;SDS011;26722;43.212;27.932;2023-02-08T04:04:16;19.45;;;5.38;;
40993;SDS011;26722;43.212;27.932;2023-02-08T04:06:43;10.13;;;4.90;;
40993;SDS011;26722;43.212;27.932;2023-02-08T04:09:09;15.18;;;5.88;;
40993;SDS011;26722;43.212;27.932;2023-02-08T04:11:35;14.35;;;5.28;;
40993;SDS011;26722;43.212;27.932;2023-02-08T04:14:00;22.40;;;7.45;;
40993;SDS011;26722;43.212;27.932;2023-02-08T04:16:26;18.90;;;6.40;;
40993;SDS011;26722;43.212;27.932;2023-02-08T04:18:51;9.23;;;4.22;;
40993;SDS011;26722;43.212;27.932;2023-02-08T04:21:17;12.80;;;6.20;;
40993;SDS011;26722;43.212;27.932;2023-02-08T04:23:42;19.90;;;7.35;;
40993;SDS011;26722;43.212;27.932;2023-02-08T04:26:08;10.27;;;5.63;;
40993;SDS011;26722;43.212;27.932;2023-02-08T04:28:33;17.67;;;6.20;;
40993;SDS011;26722;43.212;27.932;2023-02-08T04:30:59;16.85;;;8.18;;
40993;SDS011;26722;43.212;27.932;2023-02-08T04:33:25;11.82;;;6.03;;
40993;SDS011;26722;43.212;27.932;2023-02-08T04:35:50;12.65;;;5.60;;
40993;SDS011;26722;43.212;27.932;2023-02-08T04:38:18;11.25;;;5.95;;
40993;SDS011;26722;43.212;27.932;2023-02-08T04:40:43;14.40;;;5.82;;
40993;SDS011;26722;43.212;27.932;2023-02-08T04:43:09;16.55;;;6.18;;
40993;SDS011;26722;43.212;27.932;2023-02-08T04:45:34;13.73;;;5.72;;
40993;SDS011;26722;43.212;27.932;2023-02-08T04:48:00;14.55;;;5.05;;
40993;SDS011;26722;43.212;27.932;2023-02-08T04:50:26;15.43;;;5.35;;
40993;SDS011;26722;43.212;27.932;2023-02-08T04:52:51;12.27;;;4.80;;
40993;SDS011;26722;43.212;27.932;2023-02-08T04:55:16;11.95;;;5.63;;
40993;SDS011;26722;43.212;27.932;2023-02-08T04:57:42;12.10;;;5.47;;
40993;SDS011;26722;43.212;27.932;2023-02-08T05:00:08;17.52;;;7.65;;
40993;SDS011;26722;43.212;27.932;2023-02-08T05:02:33;17.13;;;7.57;;
40993;SDS011;26722;43.212;27.932;2023-02-08T05:04:59;13.57;;;5.38;;
40993;SDS011;26722;43.212;27.932;2023-02-08T05:07:25;17.88;;;7.38;;
40993;SDS011;26722;43.212;27.932;2023-02-08T05:09:50;17.45;;;6.80;;
40993;SDS011;26722;43.212;27.932;2023-02-08T05:12:15;15.55;;;6.28;;
40993;SDS011;26722;43.212;27.932;2023-02-08T05:14:41;18.65;;;6.57;;
40993;SDS011;26722;43.212;27.932;2023-02-08T05:17:06;14.00;;;5.53;;
40993;SDS011;26722;43.212;27.932;2023-02-08T05:19:32;19.25;;;7.28;;
40993;SDS011;26722;43.212;27.932;2023-02-08T05:21:58;18.40;;;7.75;;
40993;SDS011;26722;43.212;27.932;2023-02-08T05:24:23;15.93;;;7.70;;
40993;SDS011;26722;43.212;27.932;2023-02-08T05:26:49;18.25;;;7.68;;
40993;SDS011;26722;43.212;27.932;2023-02-08T05:29:14;16.50;;;7.80;;
40993;SDS011;26722;43.212;27.932;2023-02-08T05:31:40;13.52;;;5.85;;
40993;SDS011;26722;43.212;27.932;2023-02-08T05:34:05;14.52;;;6.05;;
40993;SDS011;26722;43.212;27.932;2023-02-08T05:36:31;16.58;;;6.07;;
40993;SDS011;26722;43.212;27.932;2023-02-08T05:38:56;15.75;;;5.70;;
40993;SDS011;26722;43.212;27.932;2023-02-08T05:41:22;17.52;;;6.28;;
40993;SDS011;26722;43.212;27.932;2023-02-08T05:43:47;17.17;;;6.22;;
40993;SDS011;26722;43.212;27.932;2023-02-08T05:46:13;14.15;;;6.28;;
40993;SDS011;26722;43.212;27.932;2023-02-08T05:48:38;16.27;;;7.00;;
40993;SDS011;26722;43.212;27.932;2023-02-08T05:51:04;14.80;;;6.88;;
40993;SDS011;26722;43.212;27.932;2023-02-08T05:53:29;19.75;;;8.40;;
40993;SDS011;26722;43.212;27.932;2023-02-08T05:55:55;19.52;;;7.93;;
40993;SDS011;26722;43.212;27.932;2023-02-08T05:58:22;17.45;;;6.82;;
40993;SDS011;26722;43.212;27.932;2023-02-08T06:00:48;18.80;;;8.13;;
40993;SDS011;26722;43.212;27.932;2023-02-08T06:03:14;17.35;;;6.68;;
40993;SDS011;26722;43.212;27.932;2023-02-08T06:05:39;18.80;;;6.60;;
40993;SDS011;26722;43.212;27.932;2023-02-08T06:08:05;18.70;;;6.78;;
40993;SDS011;26722;43.212;27.932;2023-02-08T06:10:31;19.92;;;8.02;;
40993;SDS011;26722;43.212;27.932;2023-02-08T06:12:57;24.48;;;8.43;;
40993;SDS011;26722;43.212;27.932;2023-02-08T06:15:22;20.98;;;10.43;;
40993;SDS011;26722;43.212;27.932;2023-02-08T06:17:48;28.08;;;10.88;;
40993;SDS011;26722;43.212;27.932;2023-02-08T06:20:14;22.70;;;7.93;;
40993;SDS011;26722;43.212;27.932;2023-02-08T06:22:39;17.15;;;7.93;;
40993;SDS011;26722;43.212;27.932;2023-02-08T06:25:05;21.17;;;8.18;;
40993;SDS011;26722;43.212;27.932;2023-02-08T06:27:31;23.10;;;9.60;;
40993;SDS011;26722;43.212;27.932;2023-02-08T06:29:56;21.45;;;9.52;;
40993;SDS011;26722;43.212;27.932;2023-02-08T06:32:22;16.83;;;7.55;;
40993;SDS011;26722;43.212;27.932;2023-02-08T06:34:47;20.45;;;7.53;;
40993;SDS011;26722;43.212;27.932;2023-02-08T06:37:15;16.63;;;7.95;;
40993;SDS011;26722;43.212;27.932;2023-02-08T06:39:41;16.75;;;8.10;;
40993;SDS011;26722;43.212;27.932;2023-02-08T06:42:07;29.48;;;11.25;;
40993;SDS011;26722;43.212;27.932;2023-02-08T06:44:32;20.75;;;8.05;;
40993;SDS011;26722;43.212;27.932;2023-02-08T06:46:58;22.50;;;9.35;;
40993;SDS011;26722;43.212;27.932;2023-02-08T06:49:23;18.88;;;9.18;;
40993;SDS011;26722;43.212;27.932;2023-02-08T06:51:49;22.90;;;8.98;;
40993;SDS011;26722;43.212;27.932;2023-02-08T06:54:14;25.52;;;9.65;;
40993;SDS011;26722;43.212;27.932;2023-02-08T06:56:40;20.27;;;8.50;;
40993;SDS011;26722;43.212;27.932;2023-02-08T06:59:05;21.92;;;8.57;;
40993;SDS011;26722;43.212;27.932;2023-02-08T07:01:31;18.20;;;6.75;;
40993;SDS011;26722;43.212;27.932;2023-02-08T07:03:56;16.50;;;7.30;;
40993;SDS011;26722;43.212;27.932;2023-02-08T07:06:22;18.75;;;7.30;;
40993;SDS011;26722;43.212;27.932;2023-02-08T07:08:47;17.67;;;7.35;;
40993;SDS011;26722;43.212;27.932;2023-02-08T07:11:14;21.92;;;9.75;;
40993;SDS011;26722;43.212;27.932;2023-02-08T07:13:50;20.17;;;8.25;;
40993;SDS011;26722;43.212;27.932;2023-02-08T07:16:17;23.10;;;8.73;;
40993;SDS011;26722;43.212;27.932;2023-02-08T07:18:43;18.67;;;7.57;;
40993;SDS011;26722;43.212;27.932;2023-02-08T07:21:09;26.38;;;8.73;;
40993;SDS011;26722;43.212;27.932;2023-02-08T07:23:38;29.15;;;10.73;;
40993;SDS011;26722;43.212;27.932;2023-02-08T07:26:08;19.52;;;7.43;;
40993;SDS011;26722;43.212;27.932;2023-02-08T07:28:36;18.77;;;7.35;;
40993;SDS011;26722;43.212;27.932;2023-02-08T07:31:06;24.50;;;9.55;;
40993;SDS011;26722;43.212;27.932;2023-02-08T07:33:33;12.20;;;5.97;;
40993;SDS011;26722;43.212;27.932;2023-02-08T07:35:59;21.45;;;9.55;;
40993;SDS011;26722;43.212;27.932;2023-02-08T07:38:24;19.90;;;8.35;;
40993;SDS011;26722;43.212;27.932;2023-02-08T07:40:50;21.05;;;8.77;;
40993;SDS011;26722;43.212;27.932;2023-02-08T07:43:15;16.95;;;6.45;;
40993;SDS011;26722;43.212;27.932;2023-02-08T07:45:41;14.82;;;7.18;;
40993;SDS011;26722;43.212;27.932;2023-02-08T07:48:06;15.07;;;6.35;;
40993;SDS011;26722;43.212;27.932;2023-02-08T07:50:32;12.57;;;6.38;;
40993;SDS011;26722;43.212;27.932;2023-02-08T07:52:57;16.20;;;6.63;;
40993;SDS011;26722;43.212;27.932;2023-02-08T07:55:23;15.55;;;7.05;;
40993;SDS011;26722;43.212;27.932;2023-02-08T07:57:48;16.13;;;7.03;;
40993;SDS011;26722;43.212;27.932;2023-02-08T08:00:15;16.95;;;7.25;;
40993;SDS011;26722;43.212;27.932;2023-02-08T08:02:43;19.15;;;8.23;;
40993;SDS011;26722;43.212;27.932;2023-02-08T08:05:09;18.05;;;6.95;;
40993;SDS011;26722;43.212;27.932;2023-02-08T08:07:35;13.52;;;6.70;;
40993;SDS011;26722;43.212;27.932;2023-02-08T08:10:01;20.40;;;8.05;;
40993;SDS011;26722;43.212;27.932;2023-02-08T08:12:27;16.05;;;6.60;;
40993;SDS011;26722;43.212;27.932;2023-02-08T08:14:52;14.32;;;6.40;;
40993;SDS011;26722;43.212;27.932;2023-02-08T08:17:18;15.68;;;6.85;;
40993;SDS011;26722;43.212;27.932;2023-02-08T08:19:44;19.70;;;7.05;;
40993;SDS011;26722;43.212;27.932;2023-02-08T08:22:09;17.00;;;6.82;;
40993;SDS011;26722;43.212;27.932;2023-02-08T08:24:35;21.55;;;8.85;;
40993;SDS011;26722;43.212;27.932;2023-02-08T08:27:02;18.20;;;6.40;;
40993;SDS011;26722;43.212;27.932;2023-02-08T08:29:33;23.02;;;7.38;;
40993;SDS011;26722;43.212;27.932;2023-02-08T08:31:59;19.45;;;8.60;;
40993;SDS011;26722;43.212;27.932;2023-02-08T08:34:25;17.67;;;6.22;;
40993;SDS011;26722;43.212;27.932;2023-02-08T08:36:54;16.08;;;6.68;;
40993;SDS011;26722;43.212;27.932;2023-02-08T08:39:20;16.15;;;6.65;;
40993;SDS011;26722;43.212;27.932;2023-02-08T08:41:46;15.02;;;6.35;;
40993;SDS011;26722;43.212;27.932;2023-02-08T08:44:11;16.60;;;7.72;;
40993;SDS011;26722;43.212;27.932;2023-02-08T08:46:37;22.02;;;7.53;;
40993;SDS011;26722;43.212;27.932;2023-02-08T08:49:02;15.88;;;6.47;;
40993;SDS011;26722;43.212;27.932;2023-02-08T08:51:28;17.50;;;7.72;;
40993;SDS011;26722;43.212;27.932;2023-02-08T08:53:55;15.52;;;6.63;;
40993;SDS011;26722;43.212;27.932;2023-02-08T08:56:21;17.27;;;7.50;;
40993;SDS011;26722;43.212;27.932;2023-02-08T08:58:47;24.08;;;8.82;;
40993;SDS011;26722;43.212;27.932;2023-02-08T09:01:13;11.65;;;5.78;;
40993;SDS011;26722;43.212;27.932;2023-02-08T09:03:38;20.85;;;7.75;;
40993;SDS011;26722;43.212;27.932;2023-02-08T09:06:03;18.13;;;5.72;;
40993;SDS011;26722;43.212;27.932;2023-02-08T09:08:29;11.57;;;4.93;;
40993;SDS011;26722;43.212;27.932;2023-02-08T09:10:55;19.02;;;6.60;;
40993;SDS011;26722;43.212;27.932;2023-02-08T09:13:20;16.00;;;6.15;;
40993;SDS011;26722;43.212;27.932;2023-02-08T09:15:46;22.02;;;8.38;;
40993;SDS011;26722;43.212;27.932;2023-02-08T09:18:13;15.40;;;6.03;;
40993;SDS011;26722;43.212;27.932;2023-02-08T09:20:38;22.15;;;6.47;;
40993;SDS011;26722;43.212;27.932;2023-02-08T09:23:05;19.80;;;7.13;;
40993;SDS011;26722;43.212;27.932;2023-02-08T09:25:34;17.08;;;6.70;;
40993;SDS011;26722;43.212;27.932;2023-02-08T09:28:00;19.73;;;7.03;;
40993;SDS011;26722;43.212;27.932;2023-02-08T09:30:26;19.77;;;8.15;;
40993;SDS011;26722;43.212;27.932;2023-02-08T09:32:54;15.82;;;6.85;;
40993;SDS011;26722;43.212;27.932;2023-02-08T09:35:24;22.15;;;8.88;;
40993;SDS011;26722;43.212;27.932;2023-02-08T09:37:51;13.60;;;7.03;;
40993;SDS011;26722;43.212;27.932;2023-02-08T09:40:27;15.75;;;7.57;;
40993;SDS011;26722;43.212;27.932;2023-02-08T09:43:09;18.85;;;7.25;;
40993;SDS011;26722;43.212;27.932;2023-02-08T09:45:46;16.48;;;6.97;;
40993;SDS011;26722;43.212;27.932;2023-02-08T09:48:17;15.00;;;6.70;;
40993;SDS011;26722;43.212;27.932;2023-02-08T09:50:52;20.83;;;8.48;;
40993;SDS011;26722;43.212;27.932;2023-02-08T09:53:29;18.98;;;7.20;;
40993;SDS011;26722;43.212;27.932;2023-02-08T09:56:00;17.92;;;7.20;;
40993;SDS011;26722;43.212;27.932;2023-02-08T09:58:38;21.77;;;8.50;;
40993;SDS011;26722;43.212;27.932;2023-02-08T10:01:30;18.40;;;8.10;;
40993;SDS011;26722;43.212;27.932;2023-02-08T10:07:20;22.52;;;7.65;;
40993;SDS011;26722;43.212;27.932;2023-02-08T10:09:45;15.40;;;7.47;;
40993;SDS011;26722;43.212;27.932;2023-02-08T10:12:13;23.10;;;8.85;;
40993;SDS011;26722;43.212;27.932;2023-02-08T10:17:40;23.95;;;9.65;;
40993;SDS011;26722;43.212;27.932;2023-02-08T10:25:31;24.83;;;9.90;;
40993;SDS011;26722;43.212;27.932;2023-02-08T10:30:42;29.13;;;11.57;;
40993;SDS011;26722;43.212;27.932;2023-02-08T10:35:58;30.20;;;10.32;;
40993;SDS011;26722;43.212;27.932;2023-02-08T10:41:00;21.52;;;9.23;;
40993;SDS011;26722;43.212;27.932;2023-02-08T10:51:25;23.27;;;9.40;;
40993;SDS011;26722;43.212;27.932;2023-02-08T10:53:51;45.92;;;12.73;;
40993;SDS011;26722;43.212;27.932;2023-02-08T10:58:58;32.22;;;12.18;;
40993;SDS011;26722;43.212;27.932;2023-02-08T11:01:26;40.03;;;11.55;;
40993;SDS011;26722;43.212;27.932;2023-02-08T11:04:06;26.70;;;10.55;;
40993;SDS011;26722;43.212;27.932;2023-02-08T11:06:38;34.55;;;13.27;;
40993;SDS011;26722;43.212;27.932;2023-02-08T11:09:06;27.15;;;11.00;;
40993;SDS011;26722;43.212;27.932;2023-02-08T11:11:44;40.72;;;15.25;;
40993;SDS011;26722;43.212;27.932;2023-02-08T11:14:15;22.58;;;8.70;;
40993;SDS011;26722;43.212;27.932;2023-02-08T11:16:48;23.65;;;9.88;;
40993;SDS011;26722;43.212;27.932;2023-02-08T11:20:00;38.65;;;15.10;;
40993;SDS011;26722;43.212;27.932;2023-02-08T11:22:16;31.05;;;12.27;;
40993;SDS011;26722;43.212;27.932;2023-02-08T11:24:44;31.50;;;10.60;;
40993;SDS011;26722;43.212;27.932;2023-02-08T11:27:27;37.45;;;12.77;;
40993;SDS011;26722;43.212;27.932;2023-02-08T11:30:38;51.70;;;18.30;;
40993;SDS011;26722;43.212;27.932;2023-02-08T11:32:42;42.95;;;12.35;;
40993;SDS011;26722;43.212;27.932;2023-02-08T11:35:28;38.60;;;15.15;;
40993;SDS011;26722;43.212;27.932;2023-02-08T11:37:57;30.88;;;11.52;;
40993;SDS011;26722;43.212;27.932;2023-02-08T11:40:25;32.80;;;12.88;;
40993;SDS011;26722;43.212;27.932;2023-02-08T11:42:54;30.38;;;10.55;;
40993;SDS011;26722;43.212;27.932;2023-02-08T11:45:28;28.48;;;9.63;;
40993;SDS011;26722;43.212;27.932;2023-02-08T11:47:56;25.45;;;9.98;;
40993;SDS011;26722;43.212;27.932;2023-02-08T11:53:19;29.40;;;11.02;;
40993;SDS011;26722;43.212;27.932;2023-02-08T11:56:05;26.70;;;10.63;;
40993;SDS011;26722;43.212;27.932;2023-02-08T11:58:40;25.10;;;11.05;;
40993;SDS011;26722;43.212;27.932;2023-02-08T12:01:28;28.88;;;10.88;;
40993;SDS011;26722;43.212;27.932;2023-02-08T12:03:59;32.85;;;10.98;;
40993;SDS011;26722;43.212;27.932;2023-02-08T12:20:46;39.78;;;12.98;;
40993;SDS011;26722;43.212;27.932;2023-02-08T12:24:03;28.20;;;10.37;;
40993;SDS011;26722;43.212;27.932;2023-02-08T12:48:17;23.40;;;8.40;;
40993;SDS011;26722;43.212;27.932;2023-02-08T12:53:55;34.05;;;11.93;;
40993;SDS011;26722;43.212;27.932;2023-02-08T12:56:26;29.48;;;9.90;;
40993;SDS011;26722;43.212;27.932;2023-02-08T12:58:59;27.05;;;9.50;;
40993;SDS011;26722;43.212;27.932;2023-02-08T13:01:36;25.40;;;8.80;;
40993;SDS011;26722;43.212;27.932;2023-02-08T13:04:31;24.50;;;9.90;;
40993;SDS011;26722;43.212;27.932;2023-02-08T13:07:10;25.83;;;9.15;;
40993;SDS011;26722;43.212;27.932;2023-02-08T13:12:21;17.48;;;6.97;;
40993;SDS011;26722;43.212;27.932;2023-02-08T13:14:53;26.95;;;8.95;;
40993;SDS011;26722;43.212;27.932;2023-02-08T13:17:43;26.80;;;10.32;;
40993;SDS011;26722;43.212;27.932;2023-02-08T13:20:18;27.65;;;10.35;;
40993;SDS011;26722;43.212;27.932;2023-02-08T13:23:39;20.80;;;8.40;;
40993;SDS011;26722;43.212;27.932;2023-02-08T13:26:00;34.08;;;9.55;;
40993;SDS011;26722;43.212;27.932;2023-02-08T13:28:30;26.08;;;10.43;;
40993;SDS011;26722;43.212;27.932;2023-02-08T13:31:03;23.17;;;7.97;;
40993;SDS011;26722;43.212;27.932;2023-02-08T13:39:21;28.40;;;10.10;;
40993;SDS011;26722;43.212;27.932;2023-02-08T13:42:03;21.05;;;7.65;;
40993;SDS011;26722;43.212;27.932;2023-02-08T13:44:33;27.92;;;11.93;;
40993;SDS011;26722;43.212;27.932;2023-02-08T13:47:04;27.50;;;9.73;;
40993;SDS011;26722;43.212;27.932;2023-02-08T13:50:05;27.90;;;9.13;;
40993;SDS011;26722;43.212;27.932;2023-02-08T13:57:53;21.58;;;8.68;;
40993;SDS011;26722;43.212;27.932;2023-02-08T14:00:22;24.75;;;10.02;;
40993;SDS011;26722;43.212;27.932;2023-02-08T14:08:15;25.30;;;8.40;;
40993;SDS011;26722;43.212;27.932;2023-02-08T14:13:57;22.58;;;7.28;;
40993;SDS011;26722;43.212;27.932;2023-02-08T14:16:34;21.63;;;8.73;;
40993;SDS011;26722;43.212;27.932;2023-02-08T14:21:45;32.60;;;10.63;;
40993;SDS011;26722;43.212;27.932;2023-02-08T14:26:46;22.92;;;8.98;;
40993;SDS011;26722;43.212;27.932;2023-02-08T14:29:20;27.38;;;9.88;;
40993;SDS011;26722;43.212;27.932;2023-02-08T14:31:48;19.60;;;8.68;;
40993;SDS011;26722;43.212;27.932;2023-02-08T14:34:37;23.02;;;9.10;;
40993;SDS011;26722;43.212;27.932;2023-02-08T14:39:35;22.65;;;8.15;;
40993;SDS011;26722;43.212;27.932;2023-02-08T14:42:05;21.92;;;8.23;;
40993;SDS011;26722;43.212;27.932;2023-02-08T14:47:12;29.08;;;10.25;;
40993;SDS011;26722;43.212;27.932;2023-02-08T14:50:16;25.33;;;8.15;;
40993;SDS011;26722;43.212;27.932;2023-02-08T14:52:51;16.33;;;6.32;;
40993;SDS011;26722;43.212;27.932;2023-02-08T14:55:24;25.92;;;10.30;;
40993;SDS011;26722;43.212;27.932;2023-02-08T14:57:54;24.60;;;9.13;;
40993;SDS011;26722;43.212;27.932;2023-02-08T15:00:25;23.52;;;9.50;;
40993;SDS011;26722;43.212;27.932;2023-02-08T15:02:56;24.48;;;8.15;;
40993;SDS011;26722;43.212;27.932;2023-02-08T15:05:23;23.67;;;8.65;;
40993;SDS011;26722;43.212;27.932;2023-02-08T15:07:57;34.17;;;11.02;;
40993;SDS011;26722;43.212;27.932;2023-02-08T15:10:27;24.50;;;7.80;;
40993;SDS011;26722;43.212;27.932;2023-02-08T15:12:58;23.98;;;8.73;;
40993;SDS011;26722;43.212;27.932;2023-02-08T15:15:41;26.48;;;9.63;;
40993;SDS011;26722;43.212;27.932;2023-02-08T15:18:14;20.30;;;8.95;;
40993;SDS011;26722;43.212;27.932;2023-02-08T15:20:45;22.13;;;8.98;;
40993;SDS011;26722;43.212;27.932;2023-02-08T15:23:23;32.78;;;10.27;;
40993;SDS011;26722;43.212;27.932;2023-02-08T15:28:26;17.88;;;7.20;;
40993;SDS011;26722;43.212;27.932;2023-02-08T15:31:00;32.00;;;11.43;;
40993;SDS011;26722;43.212;27.932;2023-02-08T15:33:29;24.88;;;9.10;;
40993;SDS011;26722;43.212;27.932;2023-02-08T15:35:57;27.30;;;10.60;;
40993;SDS011;26722;43.212;27.932;2023-02-08T15:38:25;27.90;;;9.88;;
40993;SDS011;26722;43.212;27.932;2023-02-08T15:41:11;24.80;;;7.97;;
40993;SDS011;26722;43.212;27.932;2023-02-08T15:43:40;20.15;;;7.00;;
40993;SDS011;26722;43.212;27.932;2023-02-08T15:46:14;19.38;;;7.28;;
40993;SDS011;26722;43.212;27.932;2023-02-08T15:48:43;22.38;;;8.63;;
40993;SDS011;26722;43.212;27.932;2023-02-08T15:51:11;21.08;;;8.48;;
40993;SDS011;26722;43.212;27.932;2023-02-08T15:53:42;28.17;;;9.55;;
40993;SDS011;26722;43.212;27.932;2023-02-08T15:56:09;23.10;;;9.10;;
40993;SDS011;26722;43.212;27.932;2023-02-08T15:58:43;25.00;;;9.25;;
40993;SDS011;26722;43.212;27.932;2023-02-08T16:01:17;29.80;;;10.55;;
40993;SDS011;26722;43.212;27.932;2023-02-08T16:03:47;28.85;;;9.05;;
40993;SDS011;26722;43.212;27.932;2023-02-08T16:06:18;26.73;;;10.18;;
40993;SDS011;26722;43.212;27.932;2023-02-08T16:08:47;28.23;;;9.40;;
40993;SDS011;26722;43.212;27.932;2023-02-08T16:11:23;21.77;;;8.02;;
40993;SDS011;26722;43.212;27.932;2023-02-08T16:13:53;24.83;;;9.57;;
40993;SDS011;26722;43.212;27.932;2023-02-08T16:16:25;21.83;;;8.82;;
40993;SDS011;26722;43.212;27.932;2023-02-08T16:21:50;29.15;;;12.45;;
40993;SDS011;26722;43.212;27.932;2023-02-08T16:24:22;22.55;;;8.98;;
40993;SDS011;26722;43.212;27.932;2023-02-08T16:29:32;21.70;;;9.00;;
40993;SDS011;26722;43.212;27.932;2023-02-08T16:32:04;26.45;;;10.80;;
40993;SDS011;26722;43.212;27.932;2023-02-08T16:34:32;23.52;;;8.93;;
40993;SDS011;26722;43.212;27.932;2023-02-08T16:37:00;27.27;;;10.15;;
40993;SDS011;26722;43.212;27.932;2023-02-08T16:42:26;23.55;;;8.98;;
40993;SDS011;26722;43.212;27.932;2023-02-08T16:47:36;25.60;;;9.80;;
40993;SDS011;26722;43.212;27.932;2023-02-08T16:50:14;29.13;;;10.07;;
40993;SDS011;26722;43.212;27.932;2023-02-08T16:52:42;24.52;;;8.63;;
40993;SDS011;26722;43.212;27.932;2023-02-08T16:55:13;23.27;;;9.43;;
40993;SDS011;26722;43.212;27.932;2023-02-08T16:57:46;24.58;;;8.52;;
40993;SDS011;26722;43.212;27.932;2023-02-08T17:00:15;32.17;;;10.43;;
40993;SDS011;26722;43.212;27.932;2023-02-08T17:02:43;28.98;;;10.77;;
40993;SDS011;26722;43.212;27.932;2023-02-08T17:05:08;23.80;;;8.90;;
40993;SDS011;26722;43.212;27.932;2023-02-08T17:07:34;29.80;;;10.90;;
40993;SDS011;26722;43.212;27.932;2023-02-08T17:10:00;28.17;;;8.13;;
40993;SDS011;26722;43.212;27.932;2023-02-08T17:12:26;22.98;;;9.35;;
40993;SDS011;26722;43.212;27.932;2023-02-08T17:14:51;21.70;;;7.82;;
40993;SDS011;26722;43.212;27.932;2023-02-08T17:17:17;20.15;;;8.95;;
40993;SDS011;26722;43.212;27.932;2023-02-08T17:19:44;24.90;;;8.55;;
40993;SDS011;26722;43.212;27.932;2023-02-08T17:22:10;21.45;;;8.32;;
40993;SDS011;26722;43.212;27.932;2023-02-08T17:24:36;22.00;;;7.68;;